Time;durP1;ratioP1;P1;durP2;ratioP2;P2;SDS_P1;SDS_P2;PMS_P1;PMS_P2;Temp;Humidity;BMP_temperature;BMP_pressure;BME280_temperature;BME280_humidity;BME280_pressure;Samples;Min_cycle;Max_cycle;Signal;HPM_P1;HPM_P2
2021/10/05 00:00:32;;;;;;;7.47;2.20;;;11.90;99.90;;;;;;5065806;28;20052;-67
2021/10/05 00:02:58;;;;;;;2.88;1.65;;;11.80;99.90;;;;;;5072696;28;20059;-67
2021/10/05 00:05:23;;;;;;;5.32;1.85;;;11.80;99.90;;;;;;5070748;28;20041;-67
2021/10/05 00:07:50;;;;;;;3.78;1.90;;;11.80;99.90;;;;;;5069759;28;20139;-67
2021/10/05 00:10:16;;;;;;;5.28;1.92;;;11.70;99.90;;;;;;5108795;28;20044;-67
2021/10/05 00:12:42;;;;;;;4.78;2.03;;;11.70;99.90;;;;;;5077039;28;20037;-67
2021/10/05 00:15:10;;;;;;;6.15;2.00;;;11.70;99.90;;;;;;5071887;28;20047;-67
2021/10/05 00:17:35;;;;;;;4.88;2.28;;;11.70;99.90;;;;;;5073057;28;20098;-67
2021/10/05 00:20:04;;;;;;;4.38;2.20;;;11.60;99.90;;;;;;5071727;28;20048;-67
2021/10/05 00:22:30;;;;;;;5.72;2.28;;;11.60;99.90;;;;;;5079872;28;20036;-67
2021/10/05 00:24:56;;;;;;;5.25;2.53;;;11.60;99.90;;;;;;5065704;28;20139;-67
2021/10/05 00:27:21;;;;;;;4.90;2.30;;;11.60;99.90;;;;;;5080528;28;20068;-67
2021/10/05 00:29:47;;;;;;;3.85;2.40;;;11.50;99.90;;;;;;5070615;28;20053;-67
2021/10/05 00:32:13;;;;;;;5.07;2.60;;;11.60;99.90;;;;;;5068324;28;20040;-67
2021/10/05 00:34:38;;;;;;;4.30;2.78;;;11.60;99.90;;;;;;5065689;28;20105;-67
2021/10/05 00:37:04;;;;;;;4.03;2.83;;;11.50;99.90;;;;;;5075766;28;20556;-67
2021/10/05 00:39:30;;;;;;;4.30;2.92;;;11.50;99.90;;;;;;5073625;28;20051;-67
2021/10/05 00:41:56;;;;;;;7.50;3.00;;;11.50;99.90;;;;;;5082998;28;20045;-67
2021/10/05 00:44:29;;;;;;;6.38;2.97;;;11.50;99.90;;;;;;5080444;28;20056;-67
2021/10/05 00:46:59;;;;;;;6.80;3.33;;;11.50;99.90;;;;;;5068484;28;20064;-67
2021/10/05 00:49:25;;;;;;;;;;;11.50;99.90;;;;;;5078956;28;20048;-67
2021/10/05 00:51:50;;;;;;;5.38;2.75;;;11.50;99.90;;;;;;5117268;28;19920;-67
2021/10/05 00:54:16;;;;;;;5.53;3.22;;;11.40;99.90;;;;;;5069940;28;20135;-66
2021/10/05 00:56:42;;;;;;;4.35;2.85;;;11.40;99.90;;;;;;5067872;28;20036;-67
2021/10/05 00:59:07;;;;;;;4.22;3.15;;;11.40;99.90;;;;;;5085162;28;20056;-67
2021/10/05 01:01:33;;;;;;;5.38;3.25;;;11.30;99.90;;;;;;5088689;28;20514;-66
2021/10/05 01:03:59;;;;;;;8.20;3.15;;;11.30;99.90;;;;;;5074082;28;20052;-67
2021/10/05 01:06:25;;;;;;;6.85;2.88;;;11.30;99.90;;;;;;5067039;28;20049;-67
2021/10/05 01:08:51;;;;;;;7.80;3.55;;;11.30;99.90;;;;;;5066153;28;20064;-66
2021/10/05 01:11:16;;;;;;;4.88;3.20;;;11.30;99.90;;;;;;5068783;28;20409;-66
2021/10/05 01:13:42;;;;;;;5.63;3.30;;;11.30;99.90;;;;;;5066622;28;20100;-66
2021/10/05 01:16:08;;;;;;;5.13;3.33;;;11.30;99.90;;;;;;5064770;28;20036;-66
2021/10/05 01:18:34;;;;;;;7.20;3.20;;;11.30;99.90;;;;;;5073479;28;20049;-66
2021/10/05 01:21:05;;;;;;;6.35;3.15;;;11.10;99.90;;;;;;5067588;28;20130;-66
2021/10/05 01:23:33;;;;;;;5.65;3.13;;;11.10;99.90;;;;;;5066543;28;20052;-66
2021/10/05 01:26:00;;;;;;;4.75;2.95;;;11.10;99.90;;;;;;5065192;28;20053;-66
2021/10/05 01:28:26;;;;;;;6.30;3.10;;;11.10;99.90;;;;;;5070500;28;20048;-66
2021/10/05 01:30:53;;;;;;;5.90;3.10;;;11.10;99.90;;;;;;5066388;28;20052;-66
2021/10/05 01:33:23;;;;;;;5.43;3.00;;;11.10;99.90;;;;;;5066393;28;20033;-66
2021/10/05 01:35:48;;;;;;;4.97;2.90;;;11.20;99.90;;;;;;5069743;28;20092;-66
2021/10/05 01:38:14;;;;;;;6.35;3.40;;;11.10;99.90;;;;;;5067703;28;20059;-66
2021/10/05 01:40:40;;;;;;;5.40;3.00;;;11.20;99.90;;;;;;5070252;28;20052;-66
2021/10/05 01:43:06;;;;;;;5.72;3.33;;;11.20;99.90;;;;;;5064169;28;20049;-66
2021/10/05 01:45:31;;;;;;;4.75;2.97;;;11.30;99.90;;;;;;5063569;28;20513;-66
2021/10/05 01:47:57;;;;;;;5.35;3.53;;;11.30;99.90;;;;;;5065199;28;20037;-66
2021/10/05 01:50:23;;;;;;;4.25;2.97;;;11.30;99.90;;;;;;5083480;28;20104;-66
2021/10/05 01:52:50;;;;;;;5.13;3.20;;;11.20;99.90;;;;;;5064213;28;20053;-66
2021/10/05 01:55:16;;;;;;;5.13;3.13;;;11.10;99.90;;;;;;5064482;28;20105;-66
2021/10/05 01:57:42;;;;;;;6.65;3.72;;;11.00;99.90;;;;;;5073698;28;20060;-66
2021/10/05 02:00:09;;;;;;;7.00;3.83;;;10.90;99.90;;;;;;5070231;28;20397;-66
2021/10/05 02:02:35;;;;;;;5.72;3.47;;;10.80;99.90;;;;;;5083335;28;20049;-66
2021/10/05 02:05:00;;;;;;;5.10;3.70;;;10.70;99.90;;;;;;5063804;28;20131;-66
2021/10/05 02:07:26;;;;;;;6.97;4.00;;;10.70;99.90;;;;;;5066497;28;20041;-66
2021/10/05 02:09:52;;;;;;;6.93;4.22;;;10.60;99.90;;;;;;5068625;28;20521;-66
2021/10/05 02:12:18;;;;;;;6.03;3.63;;;10.70;99.90;;;;;;5060024;28;20045;-66
2021/10/05 02:14:46;;;;;;;4.93;3.70;;;10.80;99.90;;;;;;5062307;28;20084;-66
2021/10/05 02:17:14;;;;;;;5.50;3.83;;;10.70;99.90;;;;;;5068565;28;20048;-66
2021/10/05 02:19:39;;;;;;;4.97;4.10;;;10.80;99.90;;;;;;5072339;28;20106;-66
2021/10/05 02:22:06;;;;;;;6.57;4.82;;;10.80;99.90;;;;;;5070078;28;20044;-66
2021/10/05 02:24:45;;;;;;;10.48;4.40;;;10.70;99.90;;;;;;5062270;28;20531;-66
2021/10/05 02:27:17;;;;;;;6.00;4.70;;;10.80;99.90;;;;;;5070236;28;20412;-66
2021/10/05 02:29:43;;;;;;;5.40;4.15;;;10.80;99.90;;;;;;5071546;28;20037;-66
2021/10/05 02:32:11;;;;;;;7.40;4.75;;;10.80;99.90;;;;;;5068167;28;20129;-66
2021/10/05 02:34:37;;;;;;;8.13;4.18;;;10.70;99.90;;;;;;5061232;28;20056;-66
2021/10/05 02:37:04;;;;;;;8.10;4.88;;;10.70;99.90;;;;;;5078196;28;20037;-66
2021/10/05 02:39:29;;;;;;;7.80;4.35;;;10.70;99.90;;;;;;5068952;28;20653;-67
2021/10/05 02:41:55;;;;;;;9.10;4.75;;;10.60;99.90;;;;;;5076096;28;20037;-66
2021/10/05 02:44:21;;;;;;;6.57;4.18;;;10.60;99.90;;;;;;5072622;28;20051;-66
2021/10/05 02:46:47;;;;;;;5.55;4.40;;;10.50;99.90;;;;;;5069268;28;20051;-66
2021/10/05 02:49:13;;;;;;;6.32;4.75;;;10.50;99.90;;;;;;5069724;28;20102;-66
2021/10/05 02:51:39;;;;;;;5.10;3.83;;;10.40;99.90;;;;;;5070200;28;20045;-66
2021/10/05 02:54:05;;;;;;;6.53;4.32;;;10.40;99.90;;;;;;5070785;28;20087;-66
2021/10/05 02:56:31;;;;;;;6.72;4.82;;;10.40;99.90;;;;;;5064495;28;20040;-66
2021/10/05 02:58:57;;;;;;;5.00;4.38;;;10.40;99.90;;;;;;5110989;28;20496;-66
2021/10/05 03:01:22;;;;;;;5.40;4.20;;;10.40;99.90;;;;;;5080118;28;20053;-66
2021/10/05 03:03:48;;;;;;;4.38;3.78;;;10.30;99.90;;;;;;5067621;28;20485;-67
2021/10/05 03:06:14;;;;;;;5.75;4.10;;;10.30;99.90;;;;;;5070677;28;20055;-66
2021/10/05 03:08:42;;;;;;;5.43;4.15;;;10.30;99.90;;;;;;5071260;28;20064;-66
2021/10/05 03:11:09;;;;;;;4.82;4.30;;;10.30;99.90;;;;;;5070466;28;20045;-66
2021/10/05 03:13:35;;;;;;;4.70;4.22;;;10.30;99.90;;;;;;5068720;28;20033;-66
2021/10/05 03:16:10;;;;;;;7.57;4.40;;;10.30;99.90;;;;;;5083078;28;20045;-67
2021/10/05 03:18:38;;;;;;;5.82;4.10;;;10.20;99.90;;;;;;5078475;28;20045;-68
2021/10/05 03:21:04;;;;;;;4.35;3.80;;;10.30;99.90;;;;;;5066147;28;20053;-66
2021/10/05 03:23:30;;;;;;;5.93;4.03;;;10.30;99.90;;;;;;5101402;28;20163;-66
2021/10/05 03:25:56;;;;;;;4.90;4.22;;;10.30;99.90;;;;;;5083658;28;20082;-66
2021/10/05 03:28:21;;;;;;;5.35;4.43;;;10.30;99.90;;;;;;5072614;28;20496;-66
2021/10/05 03:30:47;;;;;;;5.35;4.18;;;10.20;99.90;;;;;;5070263;28;20048;-66
2021/10/05 03:33:13;;;;;;;5.78;4.30;;;10.20;99.90;;;;;;5066239;28;20040;-66
2021/10/05 03:35:38;;;;;;;6.78;5.13;;;10.20;99.90;;;;;;5068998;28;20721;-66
2021/10/05 03:38:04;;;;;;;5.75;4.40;;;10.20;99.90;;;;;;5071385;28;20048;-66
2021/10/05 03:40:30;;;;;;;5.72;4.20;;;10.20;99.90;;;;;;5073656;28;20043;-66
2021/10/05 03:42:56;;;;;;;6.43;4.10;;;10.10;99.90;;;;;;5078185;28;20041;-67
2021/10/05 03:45:21;;;;;;;8.82;4.63;;;10.00;99.90;;;;;;5068404;28;20041;-66
2021/10/05 03:47:47;;;;;;;5.70;4.15;;;10.10;99.90;;;;;;5100026;28;20461;-66
2021/10/05 03:50:14;;;;;;;6.28;4.07;;;10.20;99.90;;;;;;5082714;28;20057;-66
2021/10/05 03:52:40;;;;;;;6.15;4.35;;;10.10;99.90;;;;;;5083822;28;20044;-66
2021/10/05 03:55:08;;;;;;;7.40;4.30;;;10.10;99.90;;;;;;5068107;28;20082;-67
2021/10/05 03:57:34;;;;;;;5.28;4.40;;;10.10;99.90;;;;;;5070038;28;20056;-66
2021/10/05 04:00:00;;;;;;;6.28;4.00;;;10.00;99.90;;;;;;5077888;28;20056;-66
2021/10/05 04:02:26;;;;;;;4.85;4.30;;;10.00;99.90;;;;;;5072348;28;20044;-66
2021/10/05 04:04:52;;;;;;;5.40;4.30;;;10.00;99.90;;;;;;5085247;28;20044;-66
2021/10/05 04:07:18;;;;;;;6.75;4.28;;;10.00;99.90;;;;;;5070919;28;20044;-67
2021/10/05 04:09:44;;;;;;;7.18;4.57;;;10.00;99.90;;;;;;5066212;28;20076;-66
2021/10/05 04:12:10;;;;;;;5.15;4.22;;;10.00;99.90;;;;;;5067310;28;20084;-66
2021/10/05 04:14:36;;;;;;;6.45;4.40;;;9.90;99.90;;;;;;5065490;28;20044;-66
2021/10/05 04:17:02;;;;;;;6.22;4.60;;;10.00;99.90;;;;;;5073561;28;20119;-66
2021/10/05 04:19:28;;;;;;;4.65;4.15;;;10.00;99.90;;;;;;5067385;28;20048;-67
2021/10/05 04:21:54;;;;;;;5.25;4.38;;;10.00;99.90;;;;;;5069876;28;20222;-66
2021/10/05 04:24:20;;;;;;;8.45;5.13;;;10.00;99.90;;;;;;5064420;28;20070;-66
2021/10/05 04:26:46;;;;;;;6.75;4.45;;;10.00;99.90;;;;;;5066511;28;20045;-66
2021/10/05 04:29:11;;;;;;;6.18;4.60;;;10.00;99.90;;;;;;5068110;28;20044;-66
2021/10/05 04:31:39;;;;;;;6.85;4.03;;;9.90;99.90;;;;;;5066474;28;20045;-66
2021/10/05 04:34:05;;;;;;;6.53;5.03;;;10.00;99.90;;;;;;5064866;28;20060;-66
2021/10/05 04:36:31;;;;;;;6.82;5.18;;;10.00;99.90;;;;;;5079723;28;20041;-66
2021/10/05 04:38:57;;;;;;;7.13;4.80;;;9.90;99.90;;;;;;5066431;28;20055;-66
2021/10/05 04:41:23;;;;;;;5.78;4.60;;;9.90;99.90;;;;;;5053905;28;20075;-66
2021/10/05 04:43:48;;;;;;;8.40;5.32;;;10.00;99.90;;;;;;5071942;28;20416;-66
2021/10/05 04:46:14;;;;;;;8.27;4.65;;;10.00;99.90;;;;;;5069606;28;20516;-66
2021/10/05 04:48:40;;;;;;;7.80;4.70;;;10.00;99.90;;;;;;5108289;28;20052;-66
2021/10/05 04:51:05;;;;;;;6.55;5.13;;;10.00;99.90;;;;;;5078103;28;20071;-66
2021/10/05 04:53:31;;;;;;;6.03;4.40;;;10.00;99.90;;;;;;5077620;28;20045;-66
2021/10/05 04:55:57;;;;;;;6.47;5.45;;;10.10;99.90;;;;;;5083863;28;20039;-67
2021/10/05 04:58:22;;;;;;;5.57;4.30;;;10.10;99.90;;;;;;5078593;28;20053;-66
2021/10/05 05:00:50;;;;;;;8.32;4.93;;;10.10;99.90;;;;;;5081234;28;20128;-66
2021/10/05 05:03:16;;;;;;;5.57;4.93;;;10.10;99.90;;;;;;5048022;28;20051;-66
2021/10/05 05:05:41;;;;;;;7.85;5.20;;;10.10;99.90;;;;;;5104977;28;20053;-66
2021/10/05 05:08:08;;;;;;;9.02;5.20;;;10.10;99.90;;;;;;5082606;28;20044;-67
2021/10/05 05:10:33;;;;;;;7.50;5.25;;;10.10;99.90;;;;;;5083893;28;20504;-66
2021/10/05 05:12:59;;;;;;;6.60;5.03;;;10.10;99.90;;;;;;5079823;28;20048;-66
2021/10/05 05:15:25;;;;;;;5.97;4.80;;;10.00;99.90;;;;;;5081455;28;20052;-66
2021/10/05 05:17:51;;;;;;;7.15;5.05;;;10.10;99.90;;;;;;5080231;28;20037;-66
2021/10/05 05:20:16;;;;;;;5.70;4.60;;;10.00;99.90;;;;;;5080802;28;20503;-67
2021/10/05 05:22:44;;;;;;;7.00;4.97;;;10.00;99.90;;;;;;5080185;28;20113;-66
2021/10/05 05:25:10;;;;;;;8.00;5.00;;;10.00;99.90;;;;;;5082738;28;20046;-66
2021/10/05 05:27:36;;;;;;;6.45;5.07;;;10.10;99.90;;;;;;5083239;28;20044;-65
2021/10/05 05:30:03;;;;;;;6.03;4.68;;;10.10;99.90;;;;;;5086584;28;20045;-64
2021/10/05 05:32:28;;;;;;;6.88;4.90;;;10.10;99.90;;;;;;5076091;28;20053;-64
2021/10/05 05:34:54;;;;;;;6.30;4.75;;;10.10;99.90;;;;;;5075149;28;20036;-64
2021/10/05 05:37:19;;;;;;;6.47;4.75;;;10.10;99.90;;;;;;5078110;28;20060;-64
2021/10/05 05:39:45;;;;;;;6.95;5.53;;;10.10;99.90;;;;;;5078082;28;20062;-65
2021/10/05 05:42:12;;;;;;;6.70;5.03;;;10.10;99.90;;;;;;5096738;28;20097;-64
2021/10/05 05:44:39;;;;;;;5.40;4.88;;;10.00;99.90;;;;;;5081783;28;20076;-64
2021/10/05 05:47:05;;;;;;;8.73;5.22;;;10.00;99.90;;;;;;5082279;28;20579;-64
2021/10/05 05:49:31;;;;;;;5.35;4.53;;;10.00;99.90;;;;;;5079570;28;20048;-64
2021/10/05 05:51:57;;;;;;;6.35;5.32;;;10.00;99.90;;;;;;5073884;28;20044;-65
2021/10/05 05:54:22;;;;;;;8.00;5.43;;;10.00;99.90;;;;;;5067301;28;20088;-62
2021/10/05 05:56:48;;;;;;;7.53;5.20;;;9.90;99.90;;;;;;5067790;28;20055;-62
2021/10/05 05:59:15;;;;;;;6.20;4.97;;;9.90;99.90;;;;;;5078525;28;20072;-62
2021/10/05 06:01:40;;;;;;;5.90;5.22;;;9.90;99.90;;;;;;5073862;28;20048;-62
2021/10/05 06:04:06;;;;;;;6.20;5.57;;;9.90;99.90;;;;;;5054403;28;20047;-62
2021/10/05 06:06:32;;;;;;;6.53;5.63;;;10.00;99.90;;;;;;5060665;28;20119;-63
2021/10/05 06:09:00;;;;;;;6.55;5.80;;;9.90;99.90;;;;;;5050200;28;20056;-62
2021/10/05 06:11:30;;;;;;;5.97;5.18;;;10.00;99.90;;;;;;5075114;28;20044;-62
2021/10/05 06:13:55;;;;;;;;;;;9.90;99.90;;;;;;5064601;28;20049;-62
2021/10/05 06:16:21;;;;;;;8.65;5.20;;;10.00;99.90;;;;;;5060400;28;19925;-62
2021/10/05 06:18:47;;;;;;;9.15;5.70;;;9.90;99.90;;;;;;5063736;28;20059;-62
2021/10/05 06:21:13;;;;;;;7.28;5.32;;;10.00;99.90;;;;;;5066919;28;20532;-61
2021/10/05 06:23:39;;;;;;;5.78;5.10;;;9.90;99.90;;;;;;5058940;28;20081;-61
2021/10/05 06:26:05;;;;;;;9.88;5.63;;;10.00;99.90;;;;;;5059329;28;20052;-62
2021/10/05 06:28:31;;;;;;;7.88;6.47;;;10.00;99.90;;;;;;5066547;28;20056;-62
2021/10/05 06:30:57;;;;;;;6.30;5.70;;;10.00;99.90;;;;;;5051978;28;20064;-62
2021/10/05 06:33:23;;;;;;;7.07;5.80;;;10.00;99.90;;;;;;5078283;28;20374;-62
2021/10/05 06:35:49;;;;;;;10.38;5.38;;;10.00;99.90;;;;;;5055569;28;20044;-62
2021/10/05 06:38:15;;;;;;;7.38;6.10;;;10.10;99.90;;;;;;5064161;28;20388;-62
2021/10/05 06:40:42;;;;;;;6.03;5.43;;;10.10;99.90;;;;;;5054603;28;20056;-62
2021/10/05 06:43:08;;;;;;;6.50;5.75;;;10.10;99.90;;;;;;5091373;28;20045;-62
2021/10/05 06:45:34;;;;;;;7.18;5.55;;;10.20;99.90;;;;;;5071365;28;20044;-62
2021/10/05 06:48:00;;;;;;;7.15;5.53;;;10.20;99.90;;;;;;5069428;28;20044;-62
2021/10/05 06:50:27;;;;;;;7.10;6.40;;;10.20;99.90;;;;;;5060914;28;20052;-62
2021/10/05 06:52:53;;;;;;;7.25;5.88;;;10.30;99.90;;;;;;5059224;28;20056;-62
2021/10/05 06:55:19;;;;;;;7.97;5.70;;;10.30;99.90;;;;;;5064030;28;20243;-61
2021/10/05 06:57:45;;;;;;;7.15;6.03;;;10.30;99.90;;;;;;5064741;28;20041;-62
2021/10/05 07:00:15;;;;;;;7.50;5.20;;;10.30;99.90;;;;;;5063600;28;20048;-62
2021/10/05 07:02:48;;;;;;;6.93;6.20;;;10.40;99.90;;;;;;5047394;28;20529;-61
2021/10/05 07:05:16;;;;;;;7.57;6.28;;;10.40;99.90;;;;;;5057473;28;20049;-62
2021/10/05 07:07:44;;;;;;;7.18;6.13;;;10.40;99.90;;;;;;5065528;28;20053;-62
2021/10/05 07:10:12;;;;;;;7.80;6.28;;;10.30;99.90;;;;;;5071693;28;20056;-62
2021/10/05 07:12:39;;;;;;;8.15;6.35;;;10.40;99.90;;;;;;5059454;28;20068;-62
2021/10/05 07:15:06;;;;;;;8.40;6.18;;;10.40;99.90;;;;;;5064698;28;20060;-62
2021/10/05 07:17:32;;;;;;;7.50;6.15;;;10.40;99.90;;;;;;5068796;28;20506;-62
2021/10/05 07:19:59;;;;;;;7.63;6.63;;;10.40;99.90;;;;;;5060601;28;20059;-62
2021/10/05 07:22:25;;;;;;;6.90;6.20;;;10.50;99.90;;;;;;5060205;28;20057;-62
2021/10/05 07:24:51;;;;;;;8.13;7.18;;;10.40;99.90;;;;;;5059602;28;20056;-62
2021/10/05 07:27:17;;;;;;;8.45;6.20;;;10.50;99.90;;;;;;5067372;28;20040;-62
2021/10/05 07:29:43;;;;;;;9.63;6.78;;;10.50;99.90;;;;;;5062348;28;20071;-62
2021/10/05 07:32:09;;;;;;;8.80;6.93;;;10.40;99.90;;;;;;5062573;28;20049;-63
2021/10/05 07:34:35;;;;;;;7.85;6.65;;;10.50;99.90;;;;;;5059299;28;20072;-62
2021/10/05 07:37:00;;;;;;;7.43;6.63;;;10.50;99.90;;;;;;5107630;28;20122;-62
2021/10/05 07:39:26;;;;;;;7.80;6.82;;;10.50;99.90;;;;;;5062247;28;20048;-62
2021/10/05 07:41:52;;;;;;;7.22;6.53;;;10.50;99.90;;;;;;5070499;28;20037;-62
2021/10/05 07:44:18;;;;;;;10.05;7.75;;;10.50;99.90;;;;;;5049878;28;20052;-61
2021/10/05 07:46:45;;;;;;;7.50;6.70;;;10.50;99.90;;;;;;5071910;28;20203;-61
2021/10/05 07:49:11;;;;;;;7.50;6.80;;;10.60;99.90;;;;;;5061528;28;20061;-61
2021/10/05 07:51:37;;;;;;;8.18;6.85;;;10.60;99.90;;;;;;5048709;28;20053;-62
2021/10/05 07:54:03;;;;;;;8.48;7.57;;;10.60;99.90;;;;;;5072598;28;20110;-61
2021/10/05 07:56:29;;;;;;;7.20;6.32;;;10.70;99.90;;;;;;5071788;28;20058;-62
2021/10/05 07:58:55;;;;;;;11.25;7.43;;;10.70;99.90;;;;;;5069935;28;20140;-62
2021/10/05 08:01:21;;;;;;;8.30;6.80;;;10.70;99.90;;;;;;5048860;28;20079;-62
2021/10/05 08:03:47;;;;;;;7.68;6.88;;;10.80;99.90;;;;;;5047915;28;20049;-62
2021/10/05 08:06:12;;;;;;;9.30;7.55;;;10.80;99.90;;;;;;5077776;28;20052;-63
2021/10/05 08:08:38;;;;;;;9.10;7.57;;;10.90;99.90;;;;;;5063432;28;20049;-62
2021/10/05 08:11:04;;;;;;;7.93;7.13;;;10.90;99.90;;;;;;5064817;28;20625;-62
2021/10/05 08:13:29;;;;;;;9.93;7.55;;;11.00;99.90;;;;;;5073975;28;20050;-62
2021/10/05 08:15:55;;;;;;;8.70;7.72;;;11.10;99.90;;;;;;5056306;28;20106;-62
2021/10/05 08:18:21;;;;;;;9.32;7.05;;;11.20;99.90;;;;;;5107581;28;20124;-62
2021/10/05 08:20:47;;;;;;;9.07;6.85;;;11.30;99.90;;;;;;5069363;28;20091;-62
2021/10/05 08:23:14;;;;;;;11.45;8.23;;;11.30;99.90;;;;;;5099354;28;20041;-62
2021/10/05 08:25:40;;;;;;;8.68;7.78;;;11.30;99.90;;;;;;5074443;28;20056;-62
2021/10/05 08:28:06;;;;;;;9.10;7.80;;;11.40;99.90;;;;;;5070839;28;20093;-62
2021/10/05 08:30:32;;;;;;;9.23;8.00;;;11.40;99.90;;;;;;5063711;28;20062;-62
2021/10/05 08:32:59;;;;;;;8.55;7.65;;;11.50;99.90;;;;;;5082045;28;20041;-62
2021/10/05 08:35:25;;;;;;;9.95;8.35;;;11.50;99.90;;;;;;5061780;28;20147;-62
2021/10/05 08:37:52;;;;;;;8.65;7.68;;;11.50;99.90;;;;;;5068025;28;20049;-62
2021/10/05 08:40:19;;;;;;;8.38;7.57;;;11.60;99.90;;;;;;5066672;28;20487;-62
2021/10/05 08:42:45;;;;;;;9.15;7.50;;;11.60;99.90;;;;;;5070137;28;20106;-62
2021/10/05 08:45:12;;;;;;;8.10;7.20;;;11.70;99.90;;;;;;5070271;28;20144;-62
2021/10/05 08:47:38;;;;;;;8.35;7.45;;;11.80;99.90;;;;;;5073642;28;20653;-62
2021/10/05 08:50:05;;;;;;;9.95;7.93;;;11.80;99.90;;;;;;5056331;28;20053;-62
2021/10/05 08:52:33;;;;;;;9.27;7.28;;;11.90;99.90;;;;;;5066514;28;20048;-62
2021/10/05 08:54:59;;;;;;;9.60;8.05;;;11.90;99.90;;;;;;5071658;28;20100;-62
2021/10/05 08:57:25;;;;;;;9.63;7.15;;;11.90;99.90;;;;;;5073640;28;20052;-62
2021/10/05 08:59:51;;;;;;;8.40;7.47;;;11.90;99.90;;;;;;5053741;28;20551;-62
2021/10/05 09:02:18;;;;;;;8.35;7.47;;;12.00;99.90;;;;;;5057301;28;20056;-62
2021/10/05 09:04:46;;;;;;;8.95;7.60;;;12.00;99.90;;;;;;5057025;28;20045;-63
2021/10/05 09:07:29;;;;;;;8.13;7.20;;;12.00;99.90;;;;;;5079740;28;20060;-62
2021/10/05 09:09:59;;;;;;;8.68;7.30;;;12.10;99.90;;;;;;5073399;28;20142;-62
2021/10/05 09:12:31;;;;;;;10.93;7.07;;;12.10;99.90;;;;;;5085176;28;20148;-62
2021/10/05 09:14:58;;;;;;;8.68;6.63;;;12.20;99.90;;;;;;5052037;28;20058;-62
2021/10/05 09:17:26;;;;;;;8.50;7.00;;;12.30;99.90;;;;;;5083348;28;20080;-62
2021/10/05 09:19:57;;;;;;;7.72;6.47;;;12.40;99.90;;;;;;5050385;28;20063;-62
2021/10/05 09:22:26;;;;;;;7.75;7.00;;;12.40;99.90;;;;;;5072877;28;20094;-62
2021/10/05 09:24:58;;;;;;;9.02;6.78;;;12.50;99.90;;;;;;5055571;28;20059;-62
2021/10/05 09:27:25;;;;;;;7.82;6.15;;;12.50;99.90;;;;;;5076620;28;20040;-62
2021/10/05 09:29:53;;;;;;;7.93;6.13;;;12.50;99.90;;;;;;5058328;28;20129;-62
2021/10/05 09:32:21;;;;;;;6.60;5.90;;;12.50;99.90;;;;;;5057616;28;20061;-63
2021/10/05 09:34:55;;;;;;;6.72;5.90;;;12.60;99.90;;;;;;5051006;28;20072;-62
2021/10/05 09:37:35;;;;;;;7.85;6.07;;;12.60;99.90;;;;;;5086931;28;20048;-62
2021/10/05 09:40:07;;;;;;;21.05;5.82;;;12.60;99.90;;;;;;5054564;28;20052;-62
2021/10/05 09:42:47;;;;;;;6.82;5.63;;;12.70;99.90;;;;;;5056350;28;20093;-62
2021/10/05 09:45:24;;;;;;;6.57;5.47;;;12.80;99.90;;;;;;5066936;28;20056;-62
2021/10/05 09:47:54;;;;;;;6.85;5.05;;;13.00;99.90;;;;;;5062571;28;20060;-62
2021/10/05 09:50:32;;;;;;;6.40;5.60;;;13.00;99.90;;;;;;5058111;28;20059;-63
2021/10/05 09:53:04;;;;;;;7.90;5.80;;;13.10;99.90;;;;;;5068450;28;20040;-62
2021/10/05 09:55:38;;;;;;;6.90;5.07;;;13.20;99.90;;;;;;5069971;28;20051;-62
2021/10/05 09:58:05;;;;;;;7.05;5.07;;;13.20;99.90;;;;;;5070398;28;20062;-62
2021/10/05 10:00:33;;;;;;;5.75;5.20;;;13.30;99.90;;;;;;5058585;28;20497;-62
2021/10/05 10:02:59;;;;;;;4.80;4.30;;;13.20;99.90;;;;;;5051743;28;20052;-62
2021/10/05 10:05:27;;;;;;;5.93;4.53;;;13.30;99.90;;;;;;5051349;28;20056;-62
2021/10/05 10:07:55;;;;;;;5.20;4.40;;;13.30;99.90;;;;;;5075974;28;20055;-62
2021/10/05 10:10:33;;;;;;;5.97;4.45;;;13.40;99.90;;;;;;5054003;28;20044;-62
2021/10/05 10:12:59;;;;;;;5.82;4.40;;;13.50;99.90;;;;;;5073799;28;20041;-63
2021/10/05 10:15:28;;;;;;;5.28;3.60;;;13.60;99.90;;;;;;5077563;28;20059;-62
2021/10/05 10:18:07;;;;;;;5.03;4.07;;;13.80;99.90;;;;;;5075233;28;20351;-62
2021/10/05 10:20:35;;;;;;;6.37;3.80;;;13.90;99.90;;;;;;5064065;28;20137;-62
2021/10/05 10:23:01;;;;;;;5.28;3.60;;;14.00;99.90;;;;;;5077636;28;20041;-62
2021/10/05 10:25:31;;;;;;;4.18;3.35;;;14.10;99.90;;;;;;5064778;28;20134;-62
2021/10/05 10:28:09;;;;;;;4.70;3.42;;;14.20;99.90;;;;;;5058165;28;20052;-63
2021/10/05 10:30:46;;;;;;;4.38;2.80;;;14.30;99.90;;;;;;5056862;28;20052;-62
2021/10/05 10:33:12;;;;;;;6.57;4.07;;;14.40;99.90;;;;;;5068989;28;20045;-62
2021/10/05 10:35:48;;;;;;;4.57;3.20;;;14.60;99.90;;;;;;5070465;28;20052;-62
2021/10/05 10:38:22;;;;;;;4.50;3.28;;;14.80;99.90;;;;;;5081682;28;20048;-62
2021/10/05 10:40:48;;;;;;;4.63;2.90;;;14.90;99.90;;;;;;5061760;28;20198;-63
2021/10/05 10:43:20;;;;;;;6.03;3.22;;;15.00;99.90;;;;;;5067560;28;20080;-62
2021/10/05 10:46:03;;;;;;;4.38;3.40;;;15.00;99.90;;;;;;5051425;28;20601;-62
2021/10/05 10:48:33;;;;;;;4.68;2.80;;;15.00;99.90;;;;;;5069261;28;20112;-62
2021/10/05 10:51:17;;;;;;;2.88;2.58;;;15.00;99.90;;;;;;5062011;28;20143;-62
2021/10/05 10:53:45;;;;;;;4.22;3.22;;;15.10;99.90;;;;;;5068150;28;20060;-62
2021/10/05 10:56:16;;;;;;;4.03;3.38;;;15.20;99.90;;;;;;5067218;28;20066;-62
2021/10/05 10:58:45;;;;;;;5.50;3.22;;;15.20;99.90;;;;;;5081697;28;20556;-62
2021/10/05 11:01:15;;;;;;;4.47;3.00;;;15.20;99.90;;;;;;5062645;28;20048;-63
2021/10/05 11:03:42;;;;;;;3.78;2.60;;;15.20;99.90;;;;;;5046895;28;20375;-62
2021/10/05 11:06:17;;;;;;;3.40;2.70;;;15.20;99.90;;;;;;5056616;28;20059;-62
2021/10/05 11:09:00;;;;;;;3.80;2.65;;;15.20;99.90;;;;;;5092543;28;20076;-62
2021/10/05 11:11:34;;;;;;;3.53;2.65;;;15.20;99.90;;;;;;5061515;28;20060;-62
2021/10/05 11:14:03;;;;;;;3.05;2.40;;;15.30;99.90;;;;;;5076792;28;20454;-62
2021/10/05 11:16:33;;;;;;;3.10;2.33;;;15.30;99.90;;;;;;5064210;28;20064;-63
2021/10/05 11:19:10;;;;;;;4.07;2.38;;;15.50;99.90;;;;;;5080367;28;20059;-62
2021/10/05 11:21:39;;;;;;;4.95;2.40;;;15.60;99.90;;;;;;5061471;28;20550;-62
2021/10/05 11:24:05;;;;;;;4.55;2.35;;;15.70;99.90;;;;;;5072917;28;20112;-62
2021/10/05 11:26:46;;;;;;;5.53;2.47;;;15.80;99.90;;;;;;5069716;28;20094;-63
2021/10/05 11:29:21;;;;;;;3.05;2.08;;;15.90;99.90;;;;;;5075551;28;20256;-62
2021/10/05 11:31:50;;;;;;;2.80;2.08;;;16.00;99.90;;;;;;5071733;28;20502;-63
2021/10/05 11:34:18;;;;;;;3.83;2.17;;;16.10;99.90;;;;;;5075056;28;20101;-62
2021/10/05 11:36:44;;;;;;;4.47;1.92;;;16.20;99.90;;;;;;5072183;28;20086;-64
2021/10/05 11:39:21;;;;;;;2.83;2.10;;;16.20;99.90;;;;;;5078290;28;20037;-62
2021/10/05 11:41:50;;;;;;;3.33;1.88;;;16.30;99.90;;;;;;5075825;28;20080;-63
2021/10/05 11:44:21;;;;;;;3.95;1.70;;;16.40;99.90;;;;;;5080736;28;20044;-62
2021/10/05 11:46:55;;;;;;;4.80;1.92;;;16.50;99.90;;;;;;5071231;28;20139;-63
2021/10/05 11:49:25;;;;;;;3.08;1.83;;;16.50;99.90;;;;;;5108294;28;20052;-63
2021/10/05 11:51:55;;;;;;;3.20;1.70;;;16.50;99.90;;;;;;5065035;28;20519;-63
2021/10/05 11:54:33;;;;;;;3.08;1.92;;;16.60;99.90;;;;;;5074728;28;20124;-62
2021/10/05 11:57:08;;;;;;;5.78;1.80;;;16.70;99.90;;;;;;5085304;28;20054;-62
2021/10/05 11:59:35;;;;;;;3.55;1.85;;;16.80;99.90;;;;;;5071515;28;20056;-62
2021/10/05 12:02:14;;;;;;;2.70;1.73;;;16.90;99.90;;;;;;5043716;28;20041;-63
2021/10/05 12:04:43;;;;;;;2.75;2.13;;;17.00;99.90;;;;;;5067072;28;20048;-63
2021/10/05 12:07:20;;;;;;;5.82;1.90;;;17.10;99.90;;;;;;5071065;28;20052;-63
2021/10/05 12:10:01;;;;;;;2.90;1.80;;;17.20;99.90;;;;;;5075752;28;20040;-62
2021/10/05 12:12:31;;;;;;;6.05;1.77;;;17.30;99.90;;;;;;5078592;28;20079;-62
2021/10/05 12:15:01;;;;;;;3.05;1.58;;;17.40;99.90;;;;;;5090767;28;20045;-62
2021/10/05 12:17:27;;;;;;;2.60;1.70;;;17.40;99.90;;;;;;5048265;28;20124;-62
2021/10/05 12:19:56;;;;;;;3.60;1.55;;;17.50;99.90;;;;;;5058126;28;20068;-62
2021/10/05 12:22:24;;;;;;;2.30;1.60;;;17.70;99.90;;;;;;5053375;28;20418;-63
2021/10/05 12:24:56;;;;;;;4.65;1.60;;;17.90;99.90;;;;;;5060918;28;20045;-63
2021/10/05 12:27:25;;;;;;;2.08;1.70;;;18.00;99.90;;;;;;5078636;28;20053;-62
2021/10/05 12:30:06;;;;;;;4.07;1.70;;;17.90;99.90;;;;;;5078726;28;20114;-62
2021/10/05 12:32:38;;;;;;;5.20;2.30;;;18.00;99.90;;;;;;5062397;28;20084;-64
2021/10/05 12:35:23;;;;;;;4.00;1.77;;;18.20;99.90;;;;;;5075685;28;20048;-63
2021/10/05 12:37:57;;;;;;;2.92;1.08;;;18.40;99.90;;;;;;5059420;28;20121;-63
2021/10/05 12:40:22;;;;;;;4.68;1.67;;;18.60;99.90;;;;;;5056615;28;20493;-63
2021/10/05 12:42:52;;;;;;;3.67;1.50;;;18.70;99.90;;;;;;5073025;28;20048;-63
2021/10/05 12:45:21;;;;;;;3.35;1.30;;;18.90;99.90;;;;;;5055193;28;20037;-63
2021/10/05 12:48:00;;;;;;;3.47;1.57;;;19.10;99.90;;;;;;5074674;28;20052;-62
2021/10/05 12:50:40;;;;;;;2.28;1.20;;;19.20;99.90;;;;;;5054596;28;20052;-62